sensor_id;sensor_type;location;lat;lon;timestamp;temperature;humidity
76838;DHT22;65797;47.352;8.164;2023-11-19T00:00:44;6.70;1.00
76838;DHT22;65797;47.352;8.164;2023-11-19T00:03:10;6.70;1.00
76838;DHT22;65797;47.352;8.164;2023-11-19T00:05:36;6.70;1.00
76838;DHT22;65797;47.352;8.164;2023-11-19T00:08:02;6.70;1.00
76838;DHT22;65797;47.352;8.164;2023-11-19T00:10:28;6.70;1.00
76838;DHT22;65797;47.352;8.164;2023-11-19T00:12:54;6.70;1.00
76838;DHT22;65797;47.352;8.164;2023-11-19T00:15:19;6.70;99.90
76838;DHT22;65797;47.352;8.164;2023-11-19T00:17:46;6.80;1.00
76838;DHT22;65797;47.352;8.164;2023-11-19T00:20:14;6.80;1.00
76838;DHT22;65797;47.352;8.164;2023-11-19T00:22:41;6.70;1.00
76838;DHT22;65797;47.352;8.164;2023-11-19T00:25:08;6.70;99.90
76838;DHT22;65797;47.352;8.164;2023-11-19T00:27:34;6.80;99.90
76838;DHT22;65797;47.352;8.164;2023-11-19T00:30:00;6.80;99.90
76838;DHT22;65797;47.352;8.164;2023-11-19T00:32:25;6.80;99.90
76838;DHT22;65797;47.352;8.164;2023-11-19T00:34:51;6.80;1.00
76838;DHT22;65797;47.352;8.164;2023-11-19T00:37:17;6.80;1.00
76838;DHT22;65797;47.352;8.164;2023-11-19T00:39:43;6.80;1.00
76838;DHT22;65797;47.352;8.164;2023-11-19T00:42:10;6.80;1.00
76838;DHT22;65797;47.352;8.164;2023-11-19T00:44:36;6.80;99.90
76838;DHT22;65797;47.352;8.164;2023-11-19T00:47:02;6.80;99.90
76838;DHT22;65797;47.352;8.164;2023-11-19T00:49:28;6.70;99.90
76838;DHT22;65797;47.352;8.164;2023-11-19T00:51:53;6.90;99.90
76838;DHT22;65797;47.352;8.164;2023-11-19T00:54:19;7.00;1.00
76838;DHT22;65797;47.352;8.164;2023-11-19T00:56:45;7.00;1.00
76838;DHT22;65797;47.352;8.164;2023-11-19T00:59:11;7.00;1.00
76838;DHT22;65797;47.352;8.164;2023-11-19T01:01:37;7.10;1.00
76838;DHT22;65797;47.352;8.164;2023-11-19T01:04:02;7.10;1.00
76838;DHT22;65797;47.352;8.164;2023-11-19T01:06:29;7.10;1.00
76838;DHT22;65797;47.352;8.164;2023-11-19T01:08:55;7.10;1.00
76838;DHT22;65797;47.352;8.164;2023-11-19T01:11:23;7.10;1.00
76838;DHT22;65797;47.352;8.164;2023-11-19T01:13:49;7.10;1.00
76838;DHT22;65797;47.352;8.164;2023-11-19T01:16:15;7.10;1.00
76838;DHT22;65797;47.352;8.164;2023-11-19T01:21:16;7.30;1.00
76838;DHT22;65797;47.352;8.164;2023-11-19T01:23:42;7.40;1.00
76838;DHT22;65797;47.352;8.164;2023-11-19T01:26:09;7.30;1.00
76838;DHT22;65797;47.352;8.164;2023-11-19T01:28:39;7.30;1.00
76838;DHT22;65797;47.352;8.164;2023-11-19T01:31:05;7.30;1.00
76838;DHT22;65797;47.352;8.164;2023-11-19T01:33:35;7.30;1.00
76838;DHT22;65797;47.352;8.164;2023-11-19T01:36:01;7.30;1.00
76838;DHT22;65797;47.352;8.164;2023-11-19T01:38:27;7.40;1.00
76838;DHT22;65797;47.352;8.164;2023-11-19T01:43:46;7.50;1.00
76838;DHT22;65797;47.352;8.164;2023-11-19T01:46:12;7.40;1.00
76838;DHT22;65797;47.352;8.164;2023-11-19T01:48:44;7.40;1.00
76838;DHT22;65797;47.352;8.164;2023-11-19T01:51:14;7.40;1.00
76838;DHT22;65797;47.352;8.164;2023-11-19T01:53:43;7.40;1.00
76838;DHT22;65797;47.352;8.164;2023-11-19T01:56:10;7.40;1.00
76838;DHT22;65797;47.352;8.164;2023-11-19T01:58:37;7.40;99.90
76838;DHT22;65797;47.352;8.164;2023-11-19T02:01:07;7.50;1.00
76838;DHT22;65797;47.352;8.164;2023-11-19T02:03:33;7.50;1.00
76838;DHT22;65797;47.352;8.164;2023-11-19T02:06:00;7.50;1.00
76838;DHT22;65797;47.352;8.164;2023-11-19T02:08:26;7.70;1.00
76838;DHT22;65797;47.352;8.164;2023-11-19T02:10:52;7.70;1.00
76838;DHT22;65797;47.352;8.164;2023-11-19T02:13:18;7.70;1.00
76838;DHT22;65797;47.352;8.164;2023-11-19T02:15:44;7.90;1.00
76838;DHT22;65797;47.352;8.164;2023-11-19T02:18:24;7.90;1.00
76838;DHT22;65797;47.352;8.164;2023-11-19T02:21:01;7.80;21.80
76838;DHT22;65797;47.352;8.164;2023-11-19T02:23:28;7.80;99.90
76838;DHT22;65797;47.352;8.164;2023-11-19T02:26:03;7.90;7.50
76838;DHT22;65797;47.352;8.164;2023-11-19T02:28:32;7.90;14.10
76838;DHT22;65797;47.352;8.164;2023-11-19T02:30:58;8.00;94.60
76838;DHT22;65797;47.352;8.164;2023-11-19T02:33:24;8.00;99.90
76838;DHT22;65797;47.352;8.164;2023-11-19T02:35:50;8.00;40.70
76838;DHT22;65797;47.352;8.164;2023-11-19T02:38:16;8.10;1.00
76838;DHT22;65797;47.352;8.164;2023-11-19T02:40:42;8.10;92.50
76838;DHT22;65797;47.352;8.164;2023-11-19T02:43:11;8.20;1.00
76838;DHT22;65797;47.352;8.164;2023-11-19T02:50:53;8.10;99.90
76838;DHT22;65797;47.352;8.164;2023-11-19T02:53:21;8.00;1.00
76838;DHT22;65797;47.352;8.164;2023-11-19T03:00:58;7.90;99.90
76838;DHT22;65797;47.352;8.164;2023-11-19T03:03:27;7.80;99.90
76838;DHT22;65797;47.352;8.164;2023-11-19T03:06:05;7.80;1.00
76838;DHT22;65797;47.352;8.164;2023-11-19T03:08:33;7.80;1.00
76838;DHT22;65797;47.352;8.164;2023-11-19T03:10:59;7.80;1.00
76838;DHT22;65797;47.352;8.164;2023-11-19T03:13:25;7.70;99.90
76838;DHT22;65797;47.352;8.164;2023-11-19T03:15:57;7.70;99.90
76838;DHT22;65797;47.352;8.164;2023-11-19T03:18:29;7.70;1.00
76838;DHT22;65797;47.352;8.164;2023-11-19T03:20:54;7.70;1.00
76838;DHT22;65797;47.352;8.164;2023-11-19T03:23:20;7.70;1.00
76838;DHT22;65797;47.352;8.164;2023-11-19T03:25:49;7.70;1.00
76838;DHT22;65797;47.352;8.164;2023-11-19T03:28:15;7.70;33.10
76838;DHT22;65797;47.352;8.164;2023-11-19T03:30:42;7.60;99.90
76838;DHT22;65797;47.352;8.164;2023-11-19T03:33:07;7.60;99.90
76838;DHT22;65797;47.352;8.164;2023-11-19T03:35:33;7.60;99.90
76838;DHT22;65797;47.352;8.164;2023-11-19T03:53:32;7.70;1.00
76838;DHT22;65797;47.352;8.164;2023-11-19T03:55:57;7.80;1.00
76838;DHT22;65797;47.352;8.164;2023-11-19T03:58:31;7.80;1.00
76838;DHT22;65797;47.352;8.164;2023-11-19T04:03:33;8.20;99.90
76838;DHT22;65797;47.352;8.164;2023-11-19T04:05:59;8.20;99.90
76838;DHT22;65797;47.352;8.164;2023-11-19T04:08:27;8.20;1.00
76838;DHT22;65797;47.352;8.164;2023-11-19T04:10:53;8.20;1.00
76838;DHT22;65797;47.352;8.164;2023-11-19T04:13:19;8.30;99.90
76838;DHT22;65797;47.352;8.164;2023-11-19T04:15:45;8.40;1.00
76838;DHT22;65797;47.352;8.164;2023-11-19T04:18:11;8.40;99.90
76838;DHT22;65797;47.352;8.164;2023-11-19T04:20:36;8.40;1.00
76838;DHT22;65797;47.352;8.164;2023-11-19T04:23:02;8.40;1.00
76838;DHT22;65797;47.352;8.164;2023-11-19T04:25:28;8.40;1.00
76838;DHT22;65797;47.352;8.164;2023-11-19T04:27:54;8.40;1.00
76838;DHT22;65797;47.352;8.164;2023-11-19T04:30:20;8.40;1.00
76838;DHT22;65797;47.352;8.164;2023-11-19T04:32:48;8.40;1.00
76838;DHT22;65797;47.352;8.164;2023-11-19T04:35:14;8.40;1.00
76838;DHT22;65797;47.352;8.164;2023-11-19T04:37:41;8.50;1.00
76838;DHT22;65797;47.352;8.164;2023-11-19T04:40:07;8.40;1.00
76838;DHT22;65797;47.352;8.164;2023-11-19T04:42:33;8.40;1.00
76838;DHT22;65797;47.352;8.164;2023-11-19T04:44:58;8.50;15.30
76838;DHT22;65797;47.352;8.164;2023-11-19T04:47:24;8.60;82.20
76838;DHT22;65797;47.352;8.164;2023-11-19T04:49:50;8.60;70.30
76838;DHT22;65797;47.352;8.164;2023-11-19T04:52:19;8.70;25.90
76838;DHT22;65797;47.352;8.164;2023-11-19T04:54:48;8.70;1.00
76838;DHT22;65797;47.352;8.164;2023-11-19T04:57:13;8.70;36.90
76838;DHT22;65797;47.352;8.164;2023-11-19T04:59:39;8.70;27.50
76838;DHT22;65797;47.352;8.164;2023-11-19T05:02:05;8.80;28.00
76838;DHT22;65797;47.352;8.164;2023-11-19T05:04:31;8.80;12.80
76838;DHT22;65797;47.352;8.164;2023-11-19T05:06:57;8.90;99.90
76838;DHT22;65797;47.352;8.164;2023-11-19T05:09:23;8.90;61.30
76838;DHT22;65797;47.352;8.164;2023-11-19T05:11:48;9.10;5.00
76838;DHT22;65797;47.352;8.164;2023-11-19T05:14:14;9.10;24.20
76838;DHT22;65797;47.352;8.164;2023-11-19T05:21:52;9.10;56.10
76838;DHT22;65797;47.352;8.164;2023-11-19T05:24:18;9.20;97.00
76838;DHT22;65797;47.352;8.164;2023-11-19T05:26:44;9.20;1.00
76838;DHT22;65797;47.352;8.164;2023-11-19T05:29:10;9.10;1.00
76838;DHT22;65797;47.352;8.164;2023-11-19T05:31:36;9.20;49.20
76838;DHT22;65797;47.352;8.164;2023-11-19T05:34:01;9.10;9.30
76838;DHT22;65797;47.352;8.164;2023-11-19T05:36:27;9.10;20.20
76838;DHT22;65797;47.352;8.164;2023-11-19T05:38:54;9.20;99.90
76838;DHT22;65797;47.352;8.164;2023-11-19T05:43:55;9.30;99.90
76838;DHT22;65797;47.352;8.164;2023-11-19T05:46:21;9.30;99.90
76838;DHT22;65797;47.352;8.164;2023-11-19T05:48:48;9.30;99.90
76838;DHT22;65797;47.352;8.164;2023-11-19T05:51:13;9.40;99.90
76838;DHT22;65797;47.352;8.164;2023-11-19T05:53:40;9.40;99.90
76838;DHT22;65797;47.352;8.164;2023-11-19T05:56:08;9.40;99.90
76838;DHT22;65797;47.352;8.164;2023-11-19T05:58:35;9.40;99.90
76838;DHT22;65797;47.352;8.164;2023-11-19T06:01:01;9.40;99.90
76838;DHT22;65797;47.352;8.164;2023-11-19T06:03:29;9.50;99.90
76838;DHT22;65797;47.352;8.164;2023-11-19T06:05:55;9.60;99.90
76838;DHT22;65797;47.352;8.164;2023-11-19T06:08:21;9.70;99.90
76838;DHT22;65797;47.352;8.164;2023-11-19T06:10:47;9.90;99.90
76838;DHT22;65797;47.352;8.164;2023-11-19T06:13:16;9.80;99.90
76838;DHT22;65797;47.352;8.164;2023-11-19T06:15:42;9.80;99.90
76838;DHT22;65797;47.352;8.164;2023-11-19T06:18:08;9.90;99.90
76838;DHT22;65797;47.352;8.164;2023-11-19T06:20:35;9.80;99.90
76838;DHT22;65797;47.352;8.164;2023-11-19T06:23:01;10.00;99.90
76838;DHT22;65797;47.352;8.164;2023-11-19T06:25:27;10.00;99.90
76838;DHT22;65797;47.352;8.164;2023-11-19T06:27:53;10.10;99.90
76838;DHT22;65797;47.352;8.164;2023-11-19T06:30:19;10.10;99.90
76838;DHT22;65797;47.352;8.164;2023-11-19T06:32:46;10.10;99.90
76838;DHT22;65797;47.352;8.164;2023-11-19T06:35:12;10.20;99.90
76838;DHT22;65797;47.352;8.164;2023-11-19T06:37:39;10.10;99.90
76838;DHT22;65797;47.352;8.164;2023-11-19T06:40:06;10.10;99.90
76838;DHT22;65797;47.352;8.164;2023-11-19T06:42:35;10.30;99.90
76838;DHT22;65797;47.352;8.164;2023-11-19T06:45:01;10.20;99.90
76838;DHT22;65797;47.352;8.164;2023-11-19T06:47:28;10.20;99.90
76838;DHT22;65797;47.352;8.164;2023-11-19T06:57:39;10.30;99.90
76838;DHT22;65797;47.352;8.164;2023-11-19T07:00:06;10.30;99.90
76838;DHT22;65797;47.352;8.164;2023-11-19T07:02:41;10.20;99.90
76838;DHT22;65797;47.352;8.164;2023-11-19T07:05:07;10.30;99.90
76838;DHT22;65797;47.352;8.164;2023-11-19T07:07:33;10.30;99.90
76838;DHT22;65797;47.352;8.164;2023-11-19T07:10:01;10.30;99.90
76838;DHT22;65797;47.352;8.164;2023-11-19T07:12:27;10.40;99.90
76838;DHT22;65797;47.352;8.164;2023-11-19T07:14:53;10.40;99.90
76838;DHT22;65797;47.352;8.164;2023-11-19T07:17:20;10.40;99.90
76838;DHT22;65797;47.352;8.164;2023-11-19T07:19:47;10.40;99.90
76838;DHT22;65797;47.352;8.164;2023-11-19T07:22:13;10.40;99.90
76838;DHT22;65797;47.352;8.164;2023-11-19T07:24:39;10.40;99.90
76838;DHT22;65797;47.352;8.164;2023-11-19T07:27:07;10.50;99.90
76838;DHT22;65797;47.352;8.164;2023-11-19T07:29:34;10.60;99.90
76838;DHT22;65797;47.352;8.164;2023-11-19T07:32:00;10.50;99.90
76838;DHT22;65797;47.352;8.164;2023-11-19T07:34:27;10.50;99.90
76838;DHT22;65797;47.352;8.164;2023-11-19T07:36:54;10.50;99.90
76838;DHT22;65797;47.352;8.164;2023-11-19T07:39:22;10.50;99.90
76838;DHT22;65797;47.352;8.164;2023-11-19T07:41:48;10.50;99.90
76838;DHT22;65797;47.352;8.164;2023-11-19T07:44:15;10.50;99.90
76838;DHT22;65797;47.352;8.164;2023-11-19T07:46:40;10.50;99.90
76838;DHT22;65797;47.352;8.164;2023-11-19T07:49:08;10.60;99.90
76838;DHT22;65797;47.352;8.164;2023-11-19T07:51:35;10.50;99.90
76838;DHT22;65797;47.352;8.164;2023-11-19T07:54:01;10.60;99.90
76838;DHT22;65797;47.352;8.164;2023-11-19T07:56:27;10.60;88.10
76838;DHT22;65797;47.352;8.164;2023-11-19T07:58:52;10.60;99.90
76838;DHT22;65797;47.352;8.164;2023-11-19T08:01:18;10.60;79.80
76838;DHT22;65797;47.352;8.164;2023-11-19T08:03:44;10.60;99.90
76838;DHT22;65797;47.352;8.164;2023-11-19T08:06:10;10.60;99.90
76838;DHT22;65797;47.352;8.164;2023-11-19T08:08:36;10.60;99.90
76838;DHT22;65797;47.352;8.164;2023-11-19T08:11:03;10.60;99.90
76838;DHT22;65797;47.352;8.164;2023-11-19T08:13:30;10.60;99.90
76838;DHT22;65797;47.352;8.164;2023-11-19T08:15:58;10.60;99.90
76838;DHT22;65797;47.352;8.164;2023-11-19T08:18:24;10.60;99.90
76838;DHT22;65797;47.352;8.164;2023-11-19T08:20:50;10.60;99.90
76838;DHT22;65797;47.352;8.164;2023-11-19T08:23:19;10.60;99.90
76838;DHT22;65797;47.352;8.164;2023-11-19T08:25:45;10.80;99.90
76838;DHT22;65797;47.352;8.164;2023-11-19T08:28:11;10.80;99.90
76838;DHT22;65797;47.352;8.164;2023-11-19T08:30:36;10.80;99.90
76838;DHT22;65797;47.352;8.164;2023-11-19T08:33:02;10.80;99.90
76838;DHT22;65797;47.352;8.164;2023-11-19T08:35:29;10.90;99.90
76838;DHT22;65797;47.352;8.164;2023-11-19T08:37:55;10.80;99.90
76838;DHT22;65797;47.352;8.164;2023-11-19T08:40:21;10.80;99.90
76838;DHT22;65797;47.352;8.164;2023-11-19T08:42:46;10.90;99.90
76838;DHT22;65797;47.352;8.164;2023-11-19T08:45:12;11.00;99.90
76838;DHT22;65797;47.352;8.164;2023-11-19T08:47:38;11.00;99.90
76838;DHT22;65797;47.352;8.164;2023-11-19T08:50:06;11.00;99.90
76838;DHT22;65797;47.352;8.164;2023-11-19T08:52:31;11.20;47.20
76838;DHT22;65797;47.352;8.164;2023-11-19T08:54:57;11.20;17.50
76838;DHT22;65797;47.352;8.164;2023-11-19T08:57:23;11.20;83.00
76838;DHT22;65797;47.352;8.164;2023-11-19T08:59:49;11.30;43.10
76838;DHT22;65797;47.352;8.164;2023-11-19T09:02:15;11.30;8.90
76838;DHT22;65797;47.352;8.164;2023-11-19T09:04:42;11.30;28.70
76838;DHT22;65797;47.352;8.164;2023-11-19T09:07:07;11.30;1.00
76838;DHT22;65797;47.352;8.164;2023-11-19T09:09:35;11.30;1.00
76838;DHT22;65797;47.352;8.164;2023-11-19T09:12:02;11.30;1.00
76838;DHT22;65797;47.352;8.164;2023-11-19T09:14:29;11.30;1.00
76838;DHT22;65797;47.352;8.164;2023-11-19T09:16:56;11.40;1.00
76838;DHT22;65797;47.352;8.164;2023-11-19T09:19:22;11.40;1.00
76838;DHT22;65797;47.352;8.164;2023-11-19T09:21:47;11.40;1.00
76838;DHT22;65797;47.352;8.164;2023-11-19T09:24:15;11.40;1.00
76838;DHT22;65797;47.352;8.164;2023-11-19T09:26:41;11.40;1.00
76838;DHT22;65797;47.352;8.164;2023-11-19T09:29:16;11.50;1.00
76838;DHT22;65797;47.352;8.164;2023-11-19T09:31:42;11.50;1.00
76838;DHT22;65797;47.352;8.164;2023-11-19T09:34:07;11.60;1.00
76838;DHT22;65797;47.352;8.164;2023-11-19T09:36:33;11.60;1.00
76838;DHT22;65797;47.352;8.164;2023-11-19T09:38:59;11.60;1.00
76838;DHT22;65797;47.352;8.164;2023-11-19T09:41:29;11.60;1.00
76838;DHT22;65797;47.352;8.164;2023-11-19T09:43:55;11.60;1.00
76838;DHT22;65797;47.352;8.164;2023-11-19T09:46:21;11.60;1.00
76838;DHT22;65797;47.352;8.164;2023-11-19T09:48:53;11.60;1.00
76838;DHT22;65797;47.352;8.164;2023-11-19T09:51:22;11.60;1.00
76838;DHT22;65797;47.352;8.164;2023-11-19T09:53:48;11.60;1.00
76838;DHT22;65797;47.352;8.164;2023-11-19T09:56:14;11.60;1.00
76838;DHT22;65797;47.352;8.164;2023-11-19T09:58:42;11.60;1.00
76838;DHT22;65797;47.352;8.164;2023-11-19T10:01:08;11.70;1.00
76838;DHT22;65797;47.352;8.164;2023-11-19T10:03:37;11.70;1.00
76838;DHT22;65797;47.352;8.164;2023-11-19T10:06:04;11.70;1.00
76838;DHT22;65797;47.352;8.164;2023-11-19T10:08:30;11.70;1.00
76838;DHT22;65797;47.352;8.164;2023-11-19T10:10:58;11.80;1.00
76838;DHT22;65797;47.352;8.164;2023-11-19T10:13:28;11.80;99.90
76838;DHT22;65797;47.352;8.164;2023-11-19T10:15:55;11.90;99.90
76838;DHT22;65797;47.352;8.164;2023-11-19T10:18:26;12.10;1.00
76838;DHT22;65797;47.352;8.164;2023-11-19T10:20:52;12.20;99.90
76838;DHT22;65797;47.352;8.164;2023-11-19T10:23:20;12.20;1.00
76838;DHT22;65797;47.352;8.164;2023-11-19T10:25:46;12.30;99.90
76838;DHT22;65797;47.352;8.164;2023-11-19T10:28:15;12.30;1.00
76838;DHT22;65797;47.352;8.164;2023-11-19T10:30:42;12.30;99.90
76838;DHT22;65797;47.352;8.164;2023-11-19T10:33:11;12.20;1.00
76838;DHT22;65797;47.352;8.164;2023-11-19T10:35:56;12.20;1.00
76838;DHT22;65797;47.352;8.164;2023-11-19T10:38:22;12.20;1.00
76838;DHT22;65797;47.352;8.164;2023-11-19T10:40:52;12.10;1.00
76838;DHT22;65797;47.352;8.164;2023-11-19T10:43:23;12.20;1.00
76838;DHT22;65797;47.352;8.164;2023-11-19T10:45:50;12.10;1.00
76838;DHT22;65797;47.352;8.164;2023-11-19T10:48:16;12.20;1.00
76838;DHT22;65797;47.352;8.164;2023-11-19T10:50:44;12.20;52.80
76838;DHT22;65797;47.352;8.164;2023-11-19T10:53:13;12.20;1.00
76838;DHT22;65797;47.352;8.164;2023-11-19T10:55:39;12.20;1.00
76838;DHT22;65797;47.352;8.164;2023-11-19T10:58:09;12.30;1.00
76838;DHT22;65797;47.352;8.164;2023-11-19T11:01:01;12.20;1.00
76838;DHT22;65797;47.352;8.164;2023-11-19T11:03:40;12.30;1.00
76838;DHT22;65797;47.352;8.164;2023-11-19T11:06:08;12.30;1.00
76838;DHT22;65797;47.352;8.164;2023-11-19T11:08:36;12.50;58.20
76838;DHT22;65797;47.352;8.164;2023-11-19T11:11:05;12.50;99.90
76838;DHT22;65797;47.352;8.164;2023-11-19T11:13:31;12.60;1.00
76838;DHT22;65797;47.352;8.164;2023-11-19T11:15:59;12.60;2.40
76838;DHT22;65797;47.352;8.164;2023-11-19T11:18:26;12.50;1.00
76838;DHT22;65797;47.352;8.164;2023-11-19T11:21:05;12.50;1.00
76838;DHT22;65797;47.352;8.164;2023-11-19T11:29:24;12.40;99.90
76838;DHT22;65797;47.352;8.164;2023-11-19T11:35:19;12.40;99.90
76838;DHT22;65797;47.352;8.164;2023-11-19T11:37:55;12.30;1.00
76838;DHT22;65797;47.352;8.164;2023-11-19T11:40:24;12.30;1.00
76838;DHT22;65797;47.352;8.164;2023-11-19T11:42:52;12.30;1.00
76838;DHT22;65797;47.352;8.164;2023-11-19T11:45:18;12.30;1.00
76838;DHT22;65797;47.352;8.164;2023-11-19T11:50:20;12.20;99.90
76838;DHT22;65797;47.352;8.164;2023-11-19T11:55:25;12.20;99.90
76838;DHT22;65797;47.352;8.164;2023-11-19T11:57:52;12.20;99.90
76838;DHT22;65797;47.352;8.164;2023-11-19T12:00:31;12.20;99.90
76838;DHT22;65797;47.352;8.164;2023-11-19T12:02:59;12.20;99.90
76838;DHT22;65797;47.352;8.164;2023-11-19T12:05:26;12.30;99.90
76838;DHT22;65797;47.352;8.164;2023-11-19T12:08:04;12.30;99.90
76838;DHT22;65797;47.352;8.164;2023-11-19T12:10:49;12.40;99.90
76838;DHT22;65797;47.352;8.164;2023-11-19T12:13:21;12.40;1.00
76838;DHT22;65797;47.352;8.164;2023-11-19T12:20:54;12.60;1.00
76838;DHT22;65797;47.352;8.164;2023-11-19T12:23:26;12.60;1.00
76838;DHT22;65797;47.352;8.164;2023-11-19T12:25:52;12.60;1.00
76838;DHT22;65797;47.352;8.164;2023-11-19T12:28:18;12.70;1.00
76838;DHT22;65797;47.352;8.164;2023-11-19T12:30:44;12.70;1.00
76838;DHT22;65797;47.352;8.164;2023-11-19T12:33:12;12.70;1.00
76838;DHT22;65797;47.352;8.164;2023-11-19T12:35:42;12.80;1.00
76838;DHT22;65797;47.352;8.164;2023-11-19T12:38:18;12.80;1.00
76838;DHT22;65797;47.352;8.164;2023-11-19T12:40:43;12.80;1.00
76838;DHT22;65797;47.352;8.164;2023-11-19T12:43:09;12.70;1.00
76838;DHT22;65797;47.352;8.164;2023-11-19T12:45:36;12.80;1.00
76838;DHT22;65797;47.352;8.164;2023-11-19T12:48:06;12.80;99.90
76838;DHT22;65797;47.352;8.164;2023-11-19T12:53:17;12.90;99.90
76838;DHT22;65797;47.352;8.164;2023-11-19T12:55:43;12.90;99.90
76838;DHT22;65797;47.352;8.164;2023-11-19T12:58:09;13.10;1.00
76838;DHT22;65797;47.352;8.164;2023-11-19T13:00:35;13.10;1.00
76838;DHT22;65797;47.352;8.164;2023-11-19T13:03:00;13.10;1.00
76838;DHT22;65797;47.352;8.164;2023-11-19T13:05:31;13.10;1.00
76838;DHT22;65797;47.352;8.164;2023-11-19T13:08:03;13.20;1.00
76838;DHT22;65797;47.352;8.164;2023-11-19T13:10:30;13.10;99.90
76838;DHT22;65797;47.352;8.164;2023-11-19T13:13:09;13.10;1.00
76838;DHT22;65797;47.352;8.164;2023-11-19T13:18:10;13.10;1.00
76838;DHT22;65797;47.352;8.164;2023-11-19T13:20:35;13.00;1.00
76838;DHT22;65797;47.352;8.164;2023-11-19T13:23:03;13.00;98.70
76838;DHT22;65797;47.352;8.164;2023-11-19T13:25:30;12.90;99.90
76838;DHT22;65797;47.352;8.164;2023-11-19T13:27:57;12.90;99.90
76838;DHT22;65797;47.352;8.164;2023-11-19T13:30:23;12.90;99.90
76838;DHT22;65797;47.352;8.164;2023-11-19T13:32:50;12.90;99.90
76838;DHT22;65797;47.352;8.164;2023-11-19T13:35:17;12.90;99.90
76838;DHT22;65797;47.352;8.164;2023-11-19T13:37:43;12.90;99.90
76838;DHT22;65797;47.352;8.164;2023-11-19T13:40:09;12.90;99.90
76838;DHT22;65797;47.352;8.164;2023-11-19T13:42:41;12.90;99.90
76838;DHT22;65797;47.352;8.164;2023-11-19T13:45:14;12.90;99.90
76838;DHT22;65797;47.352;8.164;2023-11-19T13:47:41;13.00;96.00
76838;DHT22;65797;47.352;8.164;2023-11-19T13:50:12;13.00;18.00
76838;DHT22;65797;47.352;8.164;2023-11-19T13:52:42;13.00;99.90
76838;DHT22;65797;47.352;8.164;2023-11-19T13:55:09;13.00;99.90
76838;DHT22;65797;47.352;8.164;2023-11-19T13:57:36;13.00;99.90
76838;DHT22;65797;47.352;8.164;2023-11-19T14:00:10;13.00;1.00
76838;DHT22;65797;47.352;8.164;2023-11-19T14:02:42;13.00;99.90
76838;DHT22;65797;47.352;8.164;2023-11-19T14:05:12;13.00;2.90
76838;DHT22;65797;47.352;8.164;2023-11-19T14:07:39;13.00;30.00
76838;DHT22;65797;47.352;8.164;2023-11-19T14:10:06;13.00;99.90
76838;DHT22;65797;47.352;8.164;2023-11-19T14:12:32;13.00;55.50
76838;DHT22;65797;47.352;8.164;2023-11-19T14:14:58;13.00;13.50
76838;DHT22;65797;47.352;8.164;2023-11-19T14:17:26;12.90;99.90
76838;DHT22;65797;47.352;8.164;2023-11-19T14:19:52;12.90;99.90
76838;DHT22;65797;47.352;8.164;2023-11-19T14:22:18;12.90;99.90
76838;DHT22;65797;47.352;8.164;2023-11-19T14:24:44;12.90;99.90
76838;DHT22;65797;47.352;8.164;2023-11-19T14:27:10;12.90;99.90
76838;DHT22;65797;47.352;8.164;2023-11-19T14:29:36;12.80;99.90
76838;DHT22;65797;47.352;8.164;2023-11-19T14:32:03;12.80;99.90
76838;DHT22;65797;47.352;8.164;2023-11-19T14:34:31;12.80;99.90
76838;DHT22;65797;47.352;8.164;2023-11-19T14:36:58;12.70;99.90
76838;DHT22;65797;47.352;8.164;2023-11-19T14:39:24;12.70;99.90
76838;DHT22;65797;47.352;8.164;2023-11-19T14:41:50;12.70;1.00
76838;DHT22;65797;47.352;8.164;2023-11-19T14:44:16;12.60;1.00
76838;DHT22;65797;47.352;8.164;2023-11-19T14:46:42;12.60;1.00
76838;DHT22;65797;47.352;8.164;2023-11-19T14:49:08;12.50;1.00
76838;DHT22;65797;47.352;8.164;2023-11-19T14:51:40;12.50;1.00
76838;DHT22;65797;47.352;8.164;2023-11-19T14:54:06;12.50;1.00
76838;DHT22;65797;47.352;8.164;2023-11-19T14:56:32;12.50;11.80
76838;DHT22;65797;47.352;8.164;2023-11-19T14:58:58;12.40;1.00
76838;DHT22;65797;47.352;8.164;2023-11-19T15:01:24;12.40;53.40
76838;DHT22;65797;47.352;8.164;2023-11-19T15:03:50;12.40;99.90
76838;DHT22;65797;47.352;8.164;2023-11-19T15:06:16;12.40;99.90
76838;DHT22;65797;47.352;8.164;2023-11-19T15:08:41;12.40;99.90
76838;DHT22;65797;47.352;8.164;2023-11-19T15:11:08;12.40;99.90
76838;DHT22;65797;47.352;8.164;2023-11-19T15:13:35;12.30;99.90
76838;DHT22;65797;47.352;8.164;2023-11-19T15:16:03;12.30;1.00
76838;DHT22;65797;47.352;8.164;2023-11-19T15:18:31;12.30;1.00
76838;DHT22;65797;47.352;8.164;2023-11-19T15:20:57;12.30;99.90
76838;DHT22;65797;47.352;8.164;2023-11-19T15:23:23;12.30;1.00
76838;DHT22;65797;47.352;8.164;2023-11-19T15:25:48;12.30;1.00
76838;DHT22;65797;47.352;8.164;2023-11-19T15:28:15;12.30;1.00
76838;DHT22;65797;47.352;8.164;2023-11-19T15:30:40;12.30;1.00
76838;DHT22;65797;47.352;8.164;2023-11-19T15:33:06;12.30;1.00
76838;DHT22;65797;47.352;8.164;2023-11-19T15:35:34;12.20;1.00
76838;DHT22;65797;47.352;8.164;2023-11-19T15:38:00;12.20;1.00
76838;DHT22;65797;47.352;8.164;2023-11-19T15:40:25;12.20;1.00
76838;DHT22;65797;47.352;8.164;2023-11-19T15:42:52;12.30;1.00
76838;DHT22;65797;47.352;8.164;2023-11-19T15:45:20;12.20;1.00
76838;DHT22;65797;47.352;8.164;2023-11-19T15:47:46;12.20;1.00
76838;DHT22;65797;47.352;8.164;2023-11-19T19:54:33;11.70;99.90
76838;DHT22;65797;47.352;8.164;2023-11-19T19:59:35;11.70;99.90
76838;DHT22;65797;47.352;8.164;2023-11-19T20:02:01;11.70;99.90
76838;DHT22;65797;47.352;8.164;2023-11-19T20:04:27;11.60;99.90
76838;DHT22;65797;47.352;8.164;2023-11-19T20:06:53;11.60;99.90
76838;DHT22;65797;47.352;8.164;2023-11-19T20:09:19;11.50;99.90
76838;DHT22;65797;47.352;8.164;2023-11-19T20:11:44;11.50;99.90
76838;DHT22;65797;47.352;8.164;2023-11-19T20:14:13;11.50;99.90
76838;DHT22;65797;47.352;8.164;2023-11-19T20:16:39;11.40;99.90
76838;DHT22;65797;47.352;8.164;2023-11-19T20:19:05;11.40;99.90
76838;DHT22;65797;47.352;8.164;2023-11-19T20:21:31;11.50;1.00
76838;DHT22;65797;47.352;8.164;2023-11-19T20:23:57;11.40;1.00
76838;DHT22;65797;47.352;8.164;2023-11-19T20:26:23;11.50;1.00
76838;DHT22;65797;47.352;8.164;2023-11-19T20:28:48;11.50;1.00
76838;DHT22;65797;47.352;8.164;2023-11-19T20:31:14;11.40;99.90
76838;DHT22;65797;47.352;8.164;2023-11-19T20:33:43;11.40;1.00
76838;DHT22;65797;47.352;8.164;2023-11-19T20:36:10;11.40;1.00
76838;DHT22;65797;47.352;8.164;2023-11-19T20:38:35;11.40;1.00
76838;DHT22;65797;47.352;8.164;2023-11-19T20:41:02;11.40;1.00
76838;DHT22;65797;47.352;8.164;2023-11-19T20:43:28;11.40;1.00
76838;DHT22;65797;47.352;8.164;2023-11-19T20:45:54;11.40;1.00
76838;DHT22;65797;47.352;8.164;2023-11-19T20:48:20;11.40;1.00
76838;DHT22;65797;47.352;8.164;2023-11-19T20:50:46;11.30;1.00
76838;DHT22;65797;47.352;8.164;2023-11-19T20:53:13;11.40;1.00
76838;DHT22;65797;47.352;8.164;2023-11-19T20:55:38;11.40;1.00
76838;DHT22;65797;47.352;8.164;2023-11-19T20:58:05;11.40;99.90
76838;DHT22;65797;47.352;8.164;2023-11-19T21:00:34;11.30;99.90
76838;DHT22;65797;47.352;8.164;2023-11-19T21:03:07;11.50;99.90
76838;DHT22;65797;47.352;8.164;2023-11-19T21:05:34;11.40;1.00